Time;durP1;ratioP1;P1;durP2;ratioP2;P2;SDS_P1;SDS_P2;PMS_P1;PMS_P2;Temp;Humidity;BMP_temperature;BMP_pressure;BME280_temperature;BME280_humidity;BME280_pressure;Samples;Min_cycle;Max_cycle;Signal;HPM_P1;HPM_P2
2022/09/04 00:02:30;;;;;;;2.67;2.30;;;;;;;24.66;56.10;97466.84;5070919;28;20644;-32
2022/09/04 00:05:03;;;;;;;2.57;2.37;;;;;;;24.75;55.69;97486.72;5069087;28;20644;-32
2022/09/04 00:07:55;;;;;;;2.73;2.40;;;;;;;24.75;55.89;97489.28;5070414;28;20664;-32
2022/09/04 00:10:39;;;;;;;2.43;2.23;;;;;;;24.73;55.61;97489.25;5068970;28;20310;-32
2022/09/04 00:13:31;;;;;;;2.50;2.30;;;;;;;24.75;55.80;97491.84;5059452;28;20200;-33
2022/09/04 00:16:13;;;;;;;3.37;2.53;;;;;;;24.75;55.80;97494.41;5058673;28;20240;-32
2022/09/04 00:18:56;;;;;;;3.70;2.73;;;;;;;24.70;56.18;97485.75;5074791;28;20210;-32
2022/09/04 00:21:47;;;;;;;2.87;2.37;;;;;;;24.76;55.83;97498.72;5048678;28;20673;-32
2022/09/04 00:24:15;;;;;;;2.50;2.30;;;;;;;24.69;55.85;97487.44;5064888;28;20228;-32
2022/09/04 00:27:02;;;;;;;2.30;2.10;;;;;;;24.75;55.68;97502.13;5067734;28;20300;-32
2022/09/04 00:29:50;;;;;;;2.87;2.20;;;;;;;24.75;55.84;97500.41;5061882;28;20837;-32
2022/09/04 00:32:33;;;;;;;2.60;2.40;;;;;;;24.74;55.97;97497.81;5071864;28;20750;-32
2022/09/04 00:35:38;;;;;;;2.73;2.20;;;;;;;24.74;55.69;97514.09;5060665;28;20228;-33
2022/09/04 00:38:14;;;;;;;3.47;2.40;;;;;;;24.75;56.18;97518.41;5071702;28;20197;-32
2022/09/04 00:40:55;;;;;;;2.33;2.13;;;;;;;24.75;56.31;97518.41;5067856;28;20224;-33
2022/09/04 00:43:28;;;;;;;2.63;2.43;;;;;;;24.74;56.10;97511.53;5059470;28;20235;-32
2022/09/04 00:46:19;;;;;;;3.17;2.47;;;;;;;24.75;55.76;97514.97;5060615;28;20205;-32
2022/09/04 00:48:51;;;;;;;2.93;2.53;;;;;;;24.75;56.17;97514.97;5069584;28;20197;-32
2022/09/04 00:51:28;;;;;;;2.30;2.10;;;;;;;24.75;56.03;97520.97;5076937;28;20310;-33
2022/09/04 00:54:19;;;;;;;2.67;2.33;;;;;;;24.75;56.03;97526.09;5073769;28;20230;-32
2022/09/04 00:57:20;;;;;;;2.30;2.10;;;;;;;24.75;55.72;97523.53;5075885;28;20228;-32
2022/09/04 01:00:15;;;;;;;2.40;2.20;;;;;;;24.75;56.24;97518.41;5064002;28;20235;-33
2022/09/04 01:03:06;;;;;;;2.40;2.20;;;;;;;24.74;56.16;97526.97;5066871;28;20247;-32
2022/09/04 01:05:46;;;;;;;2.40;2.13;;;;;;;24.68;56.10;97515.69;5063453;28;20725;-32
2022/09/04 01:08:31;;;;;;;2.37;2.17;;;;;;;24.74;55.94;97528.66;5072399;28;20257;-32
2022/09/04 01:11:10;;;;;;;2.40;2.20;;;;;;;24.73;55.93;97530.38;5066066;28;20251;-32
2022/09/04 01:13:40;;;;;;;2.47;2.20;;;;;;;24.74;56.20;97532.09;5063575;28;20224;-32
2022/09/04 01:16:31;;;;;;;2.10;1.90;;;;;;;24.73;56.34;97526.94;5067898;28;20222;-32
2022/09/04 01:19:06;;;;;;;2.30;2.10;;;;;;;24.75;55.91;97535.53;5061288;28;20196;-32
2022/09/04 01:21:45;;;;;;;2.77;2.40;;;;;;;24.73;55.96;97532.06;5058105;28;20314;-32
2022/09/04 01:24:36;;;;;;;2.80;2.30;;;;;;;24.73;56.00;97535.53;5064361;28;20295;-32
2022/09/04 01:27:18;;;;;;;2.50;2.30;;;;;;;24.65;56.21;97524.25;5067243;28;20674;-32
2022/09/04 01:30:12;;;;;;;2.10;1.90;;;;;;;24.74;56.21;97534.66;5052597;28;20578;-32
2022/09/04 01:33:07;;;;;;;2.47;2.10;;;;;;;24.73;55.89;97535.53;5066754;28;20224;-32
2022/09/04 01:35:54;;;;;;;2.13;1.90;;;;;;;24.74;55.83;97536.38;5069568;28;20231;-32
2022/09/04 01:38:42;;;;;;;2.43;2.23;;;;;;;24.64;56.18;97519.91;5074463;28;20290;-32
2022/09/04 01:41:27;;;;;;;2.13;1.73;;;;;;;24.74;56.30;97549.22;5062763;28;20262;-32
2022/09/04 01:43:53;;;;;;;2.43;2.00;;;;;;;24.74;56.44;97544.06;5071235;28;20410;-32
2022/09/04 01:46:23;;;;;;;2.30;2.00;;;;;;;24.67;56.03;97524.25;5072296;28;20218;-32
2022/09/04 01:48:49;;;;;;;2.13;1.93;;;;;;;24.73;56.23;97542.34;5064375;28;20235;-32
2022/09/04 01:51:32;;;;;;;2.10;1.90;;;;;;;24.73;56.23;97543.22;5065033;28;20318;-32
2022/09/04 01:54:22;;;;;;;2.43;2.20;;;;;;;24.57;56.25;97515.47;5056637;28;20220;-32
2022/09/04 01:57:11;;;;;;;2.10;1.90;;;;;;;24.73;56.30;97548.38;5060268;28;20279;-32
2022/09/04 01:59:48;;;;;;;2.23;2.03;;;;;;;24.65;56.22;97539.66;5058291;28;20283;-32
2022/09/04 02:02:37;;;;;;;2.00;1.90;;;;;;;24.73;56.04;97557.78;5062159;28;20220;-32
2022/09/04 02:05:47;;;;;;;3.77;2.00;;;;;;;24.73;56.28;97561.22;5059800;28;20196;-32
2022/09/04 02:08:20;;;;;;;2.37;2.00;;;;;;;24.72;56.30;97562.03;5058627;28;20213;-32
2022/09/04 02:11:15;;;;;;;2.13;1.93;;;;;;;24.72;56.22;97556.91;5060315;28;20248;-32
2022/09/04 02:13:55;;;;;;;1.87;1.77;;;;;;;24.72;56.42;97558.63;5050852;28;20236;-32
2022/09/04 02:16:25;;;;;;;2.33;2.10;;;;;;;24.72;56.56;97556.91;5057854;28;20258;-32
2022/09/04 02:19:11;;;;;;;2.00;1.90;;;;;;;24.72;56.42;97554.31;5078166;28;20581;-32
2022/09/04 02:21:50;;;;;;;2.60;2.40;;;;;;;24.67;56.16;97544.81;5066063;28;20220;-32
2022/09/04 02:24:29;;;;;;;2.00;1.90;;;;;;;24.69;56.04;97548.28;5073228;28;20226;-32
2022/09/04 02:27:03;;;;;;;2.40;2.00;;;;;;;24.64;56.32;97537.03;5055217;28;20321;-32
2022/09/04 02:29:51;;;;;;;2.27;1.90;;;;;;;24.72;56.21;97545.78;5059882;28;20622;-32
2022/09/04 02:32:31;;;;;;;2.23;1.97;;;;;;;24.71;56.51;97550.03;5071607;28;20224;-32
2022/09/04 02:35:07;;;;;;;2.23;2.03;;;;;;;24.72;56.32;97556.91;5062613;28;20216;-32
2022/09/04 02:37:37;;;;;;;2.23;1.87;;;;;;;24.72;56.54;97545.78;5060771;28;20263;-32
2022/09/04 02:40:09;;;;;;;2.10;2.00;;;;;;;24.72;56.04;97540.63;5062289;28;20263;-33
2022/09/04 02:42:54;;;;;;;2.17;1.97;;;;;;;24.72;56.55;97543.22;5060632;28;20239;-32
2022/09/04 02:45:35;;;;;;;2.03;1.83;;;;;;;24.73;56.60;97547.50;5066981;28;20240;-32
2022/09/04 02:48:12;;;;;;;2.30;2.10;;;;;;;24.72;56.21;97548.34;5068590;28;20224;-32
2022/09/04 02:51:01;;;;;;;1.50;1.40;;;;;;;24.73;56.54;97553.50;5062527;28;20641;-32
2022/09/04 02:53:34;;;;;;;2.00;1.90;;;;;;;24.72;56.35;97548.34;5056276;28;20212;-32
2022/09/04 02:56:38;;;;;;;2.23;2.03;;;;;;;24.72;56.27;97544.06;5066948;28;20232;-32
2022/09/04 02:59:46;;;;;;;2.20;2.00;;;;;;;24.72;56.42;97536.34;5072769;28;20405;-32
2022/09/04 03:02:41;;;;;;;1.67;1.57;;;;;;;24.71;56.04;97537.19;5003709;28;20257;-32
2022/09/04 03:05:24;;;;;;;1.90;1.80;;;;;;;24.64;56.58;97539.59;5064120;28;20706;-32
2022/09/04 03:07:59;;;;;;;2.30;2.10;;;;;;;24.70;56.38;97558.59;5054212;28;20224;-32
2022/09/04 03:10:47;;;;;;;2.17;1.97;;;;;;;24.71;56.39;97556.88;5059803;28;20798;-33
2022/09/04 03:13:22;;;;;;;1.80;1.70;;;;;;;24.65;56.61;97552.50;5060748;28;20235;-32
2022/09/04 03:15:54;;;;;;;2.17;1.93;;;;;;;24.71;56.69;97567.16;5055005;28;20254;-32
2022/09/04 03:18:51;;;;;;;2.07;1.87;;;;;;;24.71;56.23;97582.56;5068598;28;20354;-32
2022/09/04 03:21:40;;;;;;;2.27;1.80;;;;;;;24.71;56.24;97568.03;5072682;28;20256;-32
2022/09/04 03:24:16;;;;;;;1.90;1.80;;;;;;;24.71;56.08;97572.28;5058425;28;20238;-32
2022/09/04 03:26:45;;;;;;;1.90;1.80;;;;;;;24.71;56.19;97575.75;5051474;28;20235;-32
2022/09/04 03:29:33;;;;;;;2.07;1.87;;;;;;;24.72;56.47;97574.91;5052870;28;20204;-32
2022/09/04 03:32:02;;;;;;;1.93;1.73;;;;;;;24.71;56.31;97572.28;5073099;28;20291;-32
2022/09/04 03:34:41;;;;;;;2.30;2.10;;;;;;;24.71;56.43;97572.28;5062763;28;20196;-32
2022/09/04 03:37:42;;;;;;;1.87;1.50;;;;;;;24.63;56.46;97550.72;5056222;28;20200;-32
2022/09/04 03:40:34;;;;;;;2.20;2.00;;;;;;;24.72;56.78;97579.19;5071804;28;20262;-32
2022/09/04 03:43:12;;;;;;;2.37;2.00;;;;;;;24.71;56.29;97600.56;5072070;28;20543;-32
2022/09/04 03:46:05;;;;;;;2.17;1.97;;;;;;;24.72;56.53;97579.19;5072465;28;20211;-32
2022/09/04 03:48:55;;;;;;;1.70;1.60;;;;;;;24.66;56.43;97563.66;5063396;28;20196;-32
2022/09/04 03:51:34;;;;;;;1.80;1.70;;;;;;;24.71;56.52;97573.16;5073411;28;20258;-32
2022/09/04 03:54:22;;;;;;;2.00;1.90;;;;;;;24.71;56.58;97580.00;5064336;28;20284;-32
2022/09/04 03:57:01;;;;;;;1.80;1.70;;;;;;;24.72;56.40;97584.34;5072397;28;20200;-32
2022/09/04 03:59:47;;;;;;;1.70;1.60;;;;;;;24.71;56.29;97580.88;5067626;28;20224;-32
2022/09/04 04:02:22;;;;;;;1.50;1.40;;;;;;;24.70;56.16;97592.00;5071695;28;20323;-32
2022/09/04 04:04:59;;;;;;;1.97;1.87;;;;;;;24.70;56.48;97586.88;5062175;28;20202;-32
2022/09/04 04:07:37;;;;;;;2.10;1.70;;;;;;;24.69;56.37;97590.25;5061405;28;20205;-32
2022/09/04 04:10:34;;;;;;;1.63;1.53;;;;;;;24.70;56.73;97606.56;5062854;28;20267;-32
2022/09/04 04:13:11;;;;;;;1.70;1.60;;;;;;;24.69;56.46;97605.69;5059186;28;20648;-32
2022/09/04 04:15:40;;;;;;;1.70;1.60;;;;;;;24.70;56.72;97612.56;5064850;28;20673;-32
2022/09/04 04:18:19;;;;;;;1.60;1.50;;;;;;;24.70;56.47;97615.16;5069763;28;20200;-32
2022/09/04 04:20:45;;;;;;;1.60;1.50;;;;;;;24.69;56.80;97610.81;5067578;28;20255;-32
2022/09/04 04:23:35;;;;;;;2.00;1.80;;;;;;;24.59;56.58;97585.78;5070145;28;20262;-32
2022/09/04 04:26:06;;;;;;;3.43;1.70;;;;;;;24.71;56.68;97618.56;5068980;28;20201;-33
2022/09/04 04:29:11;;;;;;;1.67;1.57;;;;;;;24.70;56.77;97615.16;5062550;28;20201;-32
2022/09/04 04:32:10;;;;;;;1.80;1.70;;;;;;;24.64;56.33;97609.84;5062599;28;20247;-32
2022/09/04 04:34:46;;;;;;;2.00;1.80;;;;;;;24.71;56.43;97624.56;5063607;28;20209;-32
2022/09/04 04:37:23;;;;;;;1.70;1.60;;;;;;;24.71;56.68;97613.41;5062481;28;20617;-32
2022/09/04 04:39:55;;;;;;;1.90;1.70;;;;;;;24.69;56.75;97615.97;5061695;28;20234;-32
2022/09/04 04:42:28;;;;;;;1.80;1.70;;;;;;;24.70;56.78;97620.28;5050365;28;20220;-32
2022/09/04 04:48:07;;;;;;;1.70;1.60;;;;;;;24.70;56.95;97628.00;5061057;28;20280;-32
2022/09/04 04:50:58;;;;;;;1.60;1.50;;;;;;;24.70;56.90;97630.56;5070498;28;20262;-32
2022/09/04 04:53:45;;;;;;;1.60;1.50;;;;;;;24.70;56.74;97633.13;5073010;28;20216;-32
2022/09/04 04:56:32;;;;;;;1.63;1.53;;;;;;;24.70;56.34;97646.00;5068989;28;20240;-32
2022/09/04 04:59:22;;;;;;;1.60;1.50;;;;;;;24.69;56.79;97640.81;5065580;28;20201;-32
2022/09/04 05:02:08;;;;;;;1.60;1.50;;;;;;;24.70;56.49;97642.53;5074924;28;20585;-32
2022/09/04 05:04:40;;;;;;;1.70;1.60;;;;;;;24.69;56.39;97640.81;5063105;28;20285;-32
2022/09/04 05:07:30;;;;;;;1.57;1.47;;;;;;;24.69;56.88;97648.53;5064591;28;20287;-32
2022/09/04 05:10:04;;;;;;;1.90;1.80;;;;;;;24.68;56.89;97650.22;5061145;28;20772;-32
2022/09/04 05:12:47;;;;;;;2.07;1.67;;;;;;;24.68;57.03;97655.38;5066954;28;20225;-32
2022/09/04 05:15:38;;;;;;;2.00;1.80;;;;;;;24.69;56.98;97658.81;5062609;28;20287;-32
2022/09/04 05:18:30;;;;;;;1.60;1.50;;;;;;;24.65;56.70;97654.44;5049629;28;20211;-32
2022/09/04 05:21:16;;;;;;;1.77;1.67;;;;;;;24.60;56.80;97648.31;5062921;28;20601;-32
2022/09/04 05:23:53;;;;;;;1.47;1.37;;;;;;;24.69;56.51;97667.38;5057834;28;20277;-32
2022/09/04 05:26:35;;;;;;;1.80;1.70;;;;;;;24.69;56.63;97672.50;5059739;28;20272;-32
2022/09/04 05:29:24;;;;;;;1.77;1.67;;;;;;;24.59;56.71;97649.13;5066765;28;20224;-32
2022/09/04 05:32:30;;;;;;;1.73;1.63;;;;;;;24.70;57.08;97673.38;5035236;28;20201;-32
2022/09/04 05:35:05;;;;;;;1.83;1.70;;;;;;;24.69;56.78;97679.38;5057651;28;20236;-32
2022/09/04 05:37:41;;;;;;;1.73;1.63;;;;;;;24.69;57.03;97682.78;5056100;28;20201;-32
2022/09/04 05:40:13;;;;;;;1.77;1.67;;;;;;;24.69;56.82;97692.22;5064787;28;20228;-32
2022/09/04 05:43:11;;;;;;;1.60;1.50;;;;;;;24.69;57.14;97697.38;5066722;28;20254;-32
2022/09/04 05:46:09;;;;;;;1.50;1.40;;;;;;;24.69;56.91;97708.50;5069368;28;20235;-32
2022/09/04 05:49:02;;;;;;;1.50;1.40;;;;;;;24.68;56.94;97722.19;5071448;28;20196;-32
2022/09/04 05:51:41;;;;;;;1.80;1.70;;;;;;;24.68;57.07;97711.91;5056864;28;20726;-32
2022/09/04 05:54:23;;;;;;;1.67;1.57;;;;;;;24.68;56.96;97729.91;5054825;28;20447;-32
2022/09/04 05:57:49;;;;;;;1.70;1.60;;;;;;;24.57;56.78;97689.38;5058265;28;20279;-32
2022/09/04 06:00:17;;;;;;;1.80;1.70;;;;;;;24.59;56.97;97695.41;4988528;28;20807;-32
2022/09/04 06:02:55;;;;;;;1.97;1.77;;;;;;;24.67;56.64;97715.31;4969801;28;20309;-32
2022/09/04 06:06:17;;;;;;;1.60;1.50;;;;;;;24.68;56.69;97713.59;5036783;28;20207;-32
2022/09/04 06:09:12;;;;;;;1.50;1.40;;;;;;;24.61;56.67;97710.03;4987162;28;20223;-32
2022/09/04 06:11:51;;;;;;;1.53;1.40;;;;;;;24.69;56.62;97728.22;5062080;28;20254;-32
2022/09/04 06:14:36;;;;;;;1.67;1.57;;;;;;;24.68;56.72;97723.88;5067801;28;20642;-32
2022/09/04 06:17:33;;;;;;;1.60;1.50;;;;;;;24.67;56.87;97725.59;5069749;28;20264;-32
2022/09/04 06:20:27;;;;;;;1.70;1.60;;;;;;;24.68;56.71;97742.75;5062124;28;20252;-32
2022/09/04 06:23:06;;;;;;;1.50;1.40;;;;;;;24.63;56.63;97735.75;5058377;28;20308;-32
2022/09/04 06:25:54;;;;;;;1.60;1.50;;;;;;;24.68;57.11;97739.31;5042481;28;20224;-32
2022/09/04 06:28:45;;;;;;;1.63;1.53;;;;;;;24.68;56.67;97739.31;5038132;28;20292;-32
2022/09/04 06:31:17;;;;;;;1.47;1.37;;;;;;;24.68;56.79;97745.31;5062999;28;20717;-32
2022/09/04 06:34:12;;;;;;;2.30;2.10;;;;;;;24.69;57.14;97743.63;5059518;28;20252;-32
2022/09/04 06:36:41;;;;;;;2.60;2.30;;;;;;;24.68;57.21;97747.88;5058119;28;20283;-32
2022/09/04 06:39:29;;;;;;;2.73;2.53;;;;;;;24.68;57.28;97749.59;5063805;28;20291;-32
2022/09/04 06:42:05;;;;;;;2.50;2.30;;;;;;;24.68;57.37;97753.03;5069804;28;20212;-32
2022/09/04 06:44:42;;;;;;;2.83;2.53;;;;;;;24.68;57.50;97760.75;5044501;28;20251;-32
2022/09/04 06:47:19;;;;;;;2.83;2.60;;;;;;;24.67;57.33;97758.16;5062634;28;20296;-32
2022/09/04 06:49:49;;;;;;;2.73;2.30;;;;;;;24.67;57.57;97758.16;5071057;28;20227;-32
2022/09/04 06:52:24;;;;;;;2.77;2.57;;;;;;;24.66;57.73;97754.69;5057150;28;20759;-32
2022/09/04 06:55:38;;;;;;;2.63;2.43;;;;;;;24.66;57.58;97759.00;5043284;28;20200;-32
2022/09/04 06:58:36;;;;;;;2.50;2.27;;;;;;;24.56;57.79;97750.19;5036204;28;20225;-32
2022/09/04 07:01:10;;;;;;;2.87;2.60;;;;;;;24.57;57.95;97757.03;5059943;28;20250;-32
2022/09/04 07:03:56;;;;;;;3.33;2.60;;;;;;;24.63;57.84;97769.19;5043978;28;20273;-32
2022/09/04 07:06:57;;;;;;;2.63;2.43;;;;;;;24.66;57.62;97774.41;5049805;28;20227;-32
2022/09/04 07:09:26;;;;;;;2.50;2.30;;;;;;;24.66;57.63;97776.97;5041871;28;20292;-32
2022/09/04 07:12:14;;;;;;;3.10;2.60;;;;;;;24.65;58.02;97782.94;5056748;28;20243;-32
2022/09/04 07:14:49;;;;;;;2.73;2.53;;;;;;;24.56;57.98;97760.47;5060141;28;20250;-32
2022/09/04 07:17:42;;;;;;;3.13;2.50;;;;;;;24.65;57.90;97778.66;5057786;28;20328;-32
2022/09/04 07:20:16;;;;;;;2.73;2.53;;;;;;;24.66;57.65;97784.69;5024158;28;20265;-32
2022/09/04 07:22:55;;;;;;;2.77;2.30;;;;;;;24.66;57.95;97784.69;5039716;28;20239;-32
2022/09/04 07:25:32;;;;;;;4.13;2.40;;;;;;;24.66;58.35;97787.25;5058513;28;20278;-32
2022/09/04 07:28:23;;;;;;;2.57;2.37;;;;;;;24.67;58.29;97789.88;5050655;28;20673;-32
2022/09/04 07:31:32;;;;;;;3.10;2.80;;;;;;;24.66;58.26;97788.09;5052322;28;20234;-32
2022/09/04 07:34:21;;;;;;;2.67;2.43;;;;;;;24.66;57.93;97793.25;5058088;28;20198;-32
2022/09/04 07:36:53;;;;;;;2.47;2.27;;;;;;;24.55;58.19;97771.59;5056630;28;20204;-32
2022/09/04 07:39:38;;;;;;;2.63;2.43;;;;;;;24.55;58.28;97778.41;5042851;28;20201;-32
2022/09/04 07:42:25;;;;;;;2.80;2.30;;;;;;;24.67;57.85;97797.56;5046579;28;20279;-32
2022/09/04 07:45:11;;;;;;;3.93;2.30;;;;;;;24.67;57.85;97799.25;5059463;28;20216;-32
2022/09/04 07:48:15;;;;;;;2.40;2.20;;;;;;;24.66;58.12;97795.81;5064320;28;20406;-32
2022/09/04 07:51:02;;;;;;;2.57;2.37;;;;;;;24.63;58.25;97800.84;5063484;28;20211;-32
2022/09/04 07:53:50;;;;;;;2.30;2.10;;;;;;;24.66;58.17;97806.09;5061319;28;20224;-32
2022/09/04 07:56:34;;;;;;;2.43;2.23;;;;;;;24.66;58.13;97811.25;5060877;28;20275;-32
2022/09/04 07:59:33;;;;;;;3.57;1.90;;;;;;;24.65;57.69;97809.50;5058964;28;20243;-32
2022/09/04 08:02:10;;;;;;;2.30;2.10;;;;;;;24.66;57.70;97810.41;5061817;28;20287;-32
2022/09/04 08:05:13;;;;;;;2.03;1.93;;;;;;;24.67;58.22;97819.81;5054060;28;20228;-32
2022/09/04 08:07:39;;;;;;;2.03;1.87;;;;;;;24.67;58.08;97822.41;5028206;28;20251;-32
2022/09/04 08:10:29;;;;;;;2.43;2.23;;;;;;;24.67;58.26;97833.56;5058454;28;20240;-32
2022/09/04 08:13:32;;;;;;;2.20;2.00;;;;;;;24.68;57.70;97831.84;5069798;28;20570;-32
2022/09/04 08:16:06;;;;;;;2.40;2.20;;;;;;;24.67;57.86;97827.53;5060829;28;20262;-32
2022/09/04 08:18:36;;;;;;;2.43;2.20;;;;;;;24.67;58.03;97830.09;5069171;28;20200;-32
2022/09/04 08:21:27;;;;;;;3.37;2.47;;;;;;;24.66;57.89;97834.38;5071972;28;20302;-32
2022/09/04 08:24:09;;;;;;;2.30;2.10;;;;;;;24.67;57.95;97836.13;5066475;28;20251;-32
2022/09/04 08:26:48;;;;;;;2.33;2.10;;;;;;;24.67;58.14;97843.84;5070320;28;20325;-32
2022/09/04 08:29:20;;;;;;;2.47;2.27;;;;;;;24.68;58.22;97849.81;5070612;28;20292;-32
2022/09/04 08:32:22;;;;;;;2.40;1.80;;;;;;;24.61;58.18;97840.22;5067831;28;20667;-32
2022/09/04 08:35:22;;;;;;;2.33;2.13;;;;;;;24.68;57.81;97858.41;5071289;28;20450;-32
2022/09/04 08:38:10;;;;;;;2.30;2.10;;;;;;;24.68;58.06;97849.81;5064262;28;20228;-32
2022/09/04 08:41:14;;;;;;;2.40;2.20;;;;;;;24.66;57.81;97852.38;5065669;28;20232;-32
2022/09/04 08:43:49;;;;;;;3.93;2.23;;;;;;;24.68;58.05;97860.09;5066203;28;20251;-32
2022/09/04 08:46:34;;;;;;;3.30;2.07;;;;;;;24.67;57.84;97856.69;5072329;28;20234;-32
2022/09/04 08:49:34;;;;;;;2.40;2.20;;;;;;;24.67;57.83;97866.97;5057833;28;20205;-32
2022/09/04 08:52:26;;;;;;;2.40;2.20;;;;;;;24.68;57.68;97868.69;5065101;28;20224;-32
2022/09/04 08:55:23;;;;;;;2.43;2.23;;;;;;;24.66;58.12;97865.22;5060612;28;20283;-32
2022/09/04 08:58:18;;;;;;;2.67;2.17;;;;;;;24.68;58.01;97860.09;5062779;28;20228;-32
2022/09/04 09:01:06;;;;;;;2.43;2.20;;;;;;;24.68;58.19;97858.41;5060385;28;20216;-32
2022/09/04 09:03:58;;;;;;;2.37;2.17;;;;;;;24.68;57.78;97857.53;5055059;28;20312;-32
2022/09/04 09:06:50;;;;;;;2.00;1.90;;;;;;;24.68;57.80;97865.25;5056552;28;20247;-32
2022/09/04 09:09:53;;;;;;;2.43;2.23;;;;;;;24.68;57.85;97862.69;5063327;28;20618;-32
2022/09/04 09:12:45;;;;;;;2.63;2.10;;;;;;;24.68;57.84;97862.69;5071287;28;20196;-32
2022/09/04 09:15:35;;;;;;;2.20;2.10;;;;;;;24.68;57.97;97858.41;5062503;28;20235;-32
2022/09/04 09:18:20;;;;;;;2.20;2.00;;;;;;;24.68;58.18;97853.28;5069429;28;20289;-32
2022/09/04 09:20:58;;;;;;;2.20;2.00;;;;;;;24.69;58.22;97856.72;5074024;28;20251;-32
2022/09/04 09:23:43;;;;;;;2.33;2.20;;;;;;;24.67;58.30;97848.09;5067319;28;20226;-32
2022/09/04 09:26:58;;;;;;;3.67;2.20;;;;;;;24.69;57.94;97855.00;5058158;28;20232;-32
2022/09/04 09:29:43;;;;;;;2.30;2.10;;;;;;;24.70;57.94;97855.88;5003958;28;20617;-32
2022/09/04 09:32:34;;;;;;;2.80;2.57;;;;;;;24.68;58.29;97854.97;5069621;28;20223;-32
2022/09/04 09:35:38;;;;;;;2.30;2.10;;;;;;;24.69;58.06;97862.72;5069567;28;20244;-33
2022/09/04 09:38:26;;;;;;;2.20;2.00;;;;;;;24.68;58.16;97853.28;5071998;28;20225;-32
2022/09/04 09:41:23;;;;;;;2.40;2.20;;;;;;;24.69;58.17;97852.44;5059834;28;20267;-32
2022/09/04 09:44:12;;;;;;;2.57;2.30;;;;;;;24.68;57.81;97855.84;5069312;28;20306;-32
2022/09/04 09:46:53;;;;;;;2.33;2.13;;;;;;;24.66;58.05;97847.22;5062766;28;20283;-32
2022/09/04 09:49:56;;;;;;;2.50;2.30;;;;;;;24.69;58.06;97843.88;5056152;28;20632;-32
2022/09/04 09:52:49;;;;;;;2.50;2.30;;;;;;;24.69;58.27;97839.56;5064393;28;20239;-32
2022/09/04 09:55:47;;;;;;;2.50;2.30;;;;;;;24.70;58.17;97849.03;5072023;28;20303;-32
2022/09/04 09:58:23;;;;;;;2.40;2.00;;;;;;;24.69;58.26;97839.56;5051483;28;20239;-32
2022/09/04 10:00:58;;;;;;;2.00;1.90;;;;;;;24.70;58.34;97843.91;5066046;28;20283;-32
2022/09/04 10:04:09;;;;;;;2.47;2.27;;;;;;;24.69;58.30;97833.59;5059508;28;20205;-32
2022/09/04 10:06:51;;;;;;;2.30;2.10;;;;;;;24.69;57.98;97834.44;5069002;28;20230;-32
2022/09/04 10:09:36;;;;;;;2.50;2.13;;;;;;;24.69;58.20;97831.88;5072885;28;20282;-32
2022/09/04 10:12:44;;;;;;;2.63;2.43;;;;;;;24.70;58.30;97835.31;5066988;28;20283;-32
2022/09/04 10:15:39;;;;;;;2.20;2.00;;;;;;;24.69;58.20;97831.03;5034549;28;20643;-32
2022/09/04 10:18:34;;;;;;;2.20;2.10;;;;;;;24.69;58.15;97831.88;5062069;28;20200;-32
2022/09/04 10:21:24;;;;;;;2.40;2.20;;;;;;;24.69;58.02;97836.16;5032830;28;20263;-32
2022/09/04 10:24:41;;;;;;;2.37;2.17;;;;;;;24.70;58.04;97827.59;5054729;28;20248;-32
2022/09/04 10:27:11;;;;;;;2.30;2.10;;;;;;;24.69;57.86;97823.31;5001999;28;20265;-32
2022/09/04 10:29:52;;;;;;;3.03;2.07;;;;;;;24.68;58.20;97825.00;5010642;28;20740;-32
2022/09/04 10:32:19;;;;;;;2.50;2.23;;;;;;;24.69;57.80;97829.28;5043115;28;20228;-32
2022/09/04 10:35:20;;;;;;;2.30;2.10;;;;;;;24.68;57.73;97825.00;5069102;28;20642;-32
2022/09/04 10:37:52;;;;;;;2.83;2.40;;;;;;;24.62;57.79;97809.41;5068999;28;20235;-32
2022/09/04 10:40:56;;;;;;;2.10;1.93;;;;;;;24.70;58.06;97817.31;5058863;28;20315;-32
2022/09/04 10:43:23;;;;;;;2.57;2.37;;;;;;;24.68;58.25;97817.28;5072956;28;20196;-32
2022/09/04 10:46:28;;;;;;;2.10;2.00;;;;;;;24.69;58.09;97820.75;5059816;28;20591;-33
2022/09/04 10:49:32;;;;;;;2.23;2.13;;;;;;;24.68;58.08;97817.28;5061197;28;20197;-32
2022/09/04 10:53:00;;;;;;;2.17;1.97;;;;;;;24.69;58.06;97820.75;5065285;28;20196;-32
2022/09/04 10:55:46;;;;;;;2.30;2.10;;;;;;;24.70;58.02;97828.47;5001194;28;20743;-32
2022/09/04 10:58:43;;;;;;;2.20;2.00;;;;;;;24.69;58.03;97823.31;4983605;28;20281;-32
2022/09/04 11:01:25;;;;;;;2.37;2.13;;;;;;;24.68;58.23;97817.28;5034927;28;20256;-32
2022/09/04 11:04:27;;;;;;;2.47;2.03;;;;;;;24.69;58.14;97831.88;5067167;28;20241;-32
2022/09/04 11:07:35;;;;;;;2.30;2.10;;;;;;;24.68;58.29;97825.00;5034629;28;20737;-32
2022/09/04 11:10:34;;;;;;;2.00;1.90;;;;;;;24.69;58.25;97824.16;5009519;28;20293;-33
2022/09/04 11:13:22;;;;;;;2.87;2.00;;;;;;;24.69;58.35;97821.59;4963332;28;20237;-32
2022/09/04 11:16:24;;;;;;;2.23;2.03;;;;;;;24.69;58.09;97833.59;5048595;28;20200;-32
2022/09/04 11:19:09;;;;;;;2.50;1.77;;;;;;;24.68;58.27;97819.88;5049327;28;20206;-33
2022/09/04 11:21:41;;;;;;;2.03;1.93;;;;;;;24.68;58.37;97822.44;5072358;28;20220;-32
2022/09/04 11:24:29;;;;;;;2.00;1.90;;;;;;;24.68;58.07;97830.16;5052361;28;20244;-32
2022/09/04 11:27:15;;;;;;;2.63;2.17;;;;;;;24.68;58.10;97832.72;5052232;28;20284;-32
2022/09/04 11:30:02;;;;;;;2.00;1.90;;;;;;;24.68;58.02;97817.28;5061125;28;20246;-32
2022/09/04 11:32:51;;;;;;;2.00;1.83;;;;;;;24.67;58.12;97813.00;5051184;28;20235;-32
2022/09/04 11:35:55;;;;;;;1.80;1.70;;;;;;;24.68;58.04;97812.16;5066616;28;20233;-32
2022/09/04 11:38:46;;;;;;;2.10;1.90;;;;;;;24.68;57.94;97812.16;5068738;28;20239;-32
2022/09/04 11:41:38;;;;;;;2.40;2.20;;;;;;;24.68;58.10;97806.13;5051865;28;20260;-32
2022/09/04 11:44:27;;;;;;;2.10;2.00;;;;;;;24.69;57.93;97797.59;5069733;28;20306;-32
2022/09/04 11:47:15;;;;;;;2.00;1.90;;;;;;;24.70;57.96;97796.75;5070313;28;20288;-32
2022/09/04 11:50:19;;;;;;;1.97;1.80;;;;;;;24.69;58.35;97801.03;5054645;28;20243;-32
2022/09/04 11:53:23;;;;;;;1.90;1.80;;;;;;;24.69;58.35;97795.03;5064336;28;20224;-32
2022/09/04 11:56:11;;;;;;;2.10;1.90;;;;;;;24.69;58.23;97797.59;5063509;28;20609;-32
2022/09/04 11:59:14;;;;;;;2.17;1.97;;;;;;;24.69;58.16;97795.03;5060204;28;20252;-32
2022/09/04 12:02:10;;;;;;;2.00;1.90;;;;;;;24.68;58.32;97790.72;5067806;28;20246;-33
2022/09/04 12:05:04;;;;;;;2.20;2.00;;;;;;;24.69;58.27;97792.47;5072641;28;20283;-32
2022/09/04 12:08:09;;;;;;;3.77;1.73;;;;;;;24.68;58.32;97794.16;5058781;28;20192;-32
2022/09/04 12:11:03;;;;;;;2.80;1.90;;;;;;;24.69;58.57;97792.47;5055223;28;20216;-32
2022/09/04 12:13:32;;;;;;;2.17;1.90;;;;;;;24.68;58.31;97796.72;5067483;28;20232;-32
2022/09/04 12:16:05;;;;;;;1.90;1.80;;;;;;;24.67;58.48;97792.44;5068414;28;20279;-32
2022/09/04 12:18:59;;;;;;;2.67;1.80;;;;;;;24.68;58.54;97795.84;5073090;28;20203;-32
2022/09/04 12:21:40;;;;;;;3.57;2.07;;;;;;;24.69;58.02;97802.75;5068416;28;20298;-32
2022/09/04 12:24:25;;;;;;;2.17;1.80;;;;;;;24.69;58.15;97810.47;5072523;28;20551;-32
2022/09/04 12:27:10;;;;;;;2.00;1.83;;;;;;;24.69;58.28;97802.75;5070712;28;20292;-32
2022/09/04 12:30:05;;;;;;;2.23;1.97;;;;;;;24.69;58.56;97797.59;5068998;28;20236;-32
2022/09/04 12:32:49;;;;;;;2.00;1.80;;;;;;;24.70;58.52;97799.34;5070382;28;20212;-32
2022/09/04 12:35:34;;;;;;;2.50;2.10;;;;;;;24.68;58.32;97796.72;5055263;28;20211;-32
2022/09/04 12:38:24;;;;;;;2.37;2.17;;;;;;;24.69;58.28;97792.47;5070367;28;20296;-32
2022/09/04 12:41:10;;;;;;;1.90;1.80;;;;;;;24.70;58.46;97800.22;5073152;28;20251;-32
2022/09/04 12:43:45;;;;;;;2.20;1.90;;;;;;;24.70;57.98;97797.63;5074889;28;20287;-32
2022/09/04 12:46:13;;;;;;;2.10;1.90;;;;;;;24.71;58.34;97801.06;5071693;28;20659;-32
2022/09/04 12:49:05;;;;;;;2.00;1.90;;;;;;;24.70;58.39;97805.34;5069625;28;20205;-32
2022/09/04 12:51:54;;;;;;;1.80;1.70;;;;;;;24.70;58.43;97800.22;5069553;28;20309;-33
2022/09/04 12:54:30;;;;;;;1.93;1.80;;;;;;;24.65;58.40;97796.66;5073232;28;20274;-32
2022/09/04 12:57:14;;;;;;;1.80;1.70;;;;;;;24.71;58.58;97803.63;5065294;28;20745;-32
2022/09/04 12:59:46;;;;;;;2.10;2.00;;;;;;;24.70;58.44;97809.59;5062389;28;20928;-32
2022/09/04 13:02:19;;;;;;;1.90;1.80;;;;;;;24.70;58.43;97797.63;5070338;28;20235;-32
2022/09/04 13:05:08;;;;;;;1.80;1.63;;;;;;;24.68;58.24;97793.28;5070621;28;20249;-32
2022/09/04 13:07:46;;;;;;;1.97;1.87;;;;;;;24.70;58.55;97807.03;5066884;28;20299;-32